Time;durP1;ratioP1;P1;durP2;ratioP2;P2;SDS_P1;SDS_P2;PMS_P1;PMS_P2;Temp;Humidity;BMP_temperature;BMP_pressure;BME280_temperature;BME280_humidity;BME280_pressure;Samples;Min_cycle;Max_cycle;Signal;HPM_P1;HPM_P2
2022/05/17 00:01:23;;;;;;;;;;;13.40;99.90;;;;;;5040322;28;19912;-62
2022/05/17 00:03:48;;;;;;;;;;;13.50;99.90;;;;;;5036535;28;19925;-62
2022/05/17 00:06:14;;;;;;;;;;;13.80;99.90;;;;;;5034951;28;19959;-62
2022/05/17 00:08:40;;;;;;;;;;;13.70;99.90;;;;;;5032616;28;19988;-62
2022/05/17 00:11:06;;;;;;;;;;;13.60;99.90;;;;;;5033894;28;20293;-62
2022/05/17 00:13:32;;;;;;;;;;;13.60;99.90;;;;;;5043191;28;19917;-62
2022/05/17 00:15:58;;;;;;;;;;;13.70;99.90;;;;;;5029077;28;19975;-62
2022/05/17 00:18:24;;;;;;;;;;;13.70;99.90;;;;;;5052589;28;19913;-62
2022/05/17 00:20:50;;;;;;;;;;;13.70;99.90;;;;;;5031878;28;19920;-62
2022/05/17 00:23:15;;;;;;;;;;;13.70;99.90;;;;;;5035963;28;20430;-62
2022/05/17 00:25:42;;;;;;;;;;;14.00;99.90;;;;;;5039327;28;20488;-62
2022/05/17 00:28:07;;;;;;;;;;;14.00;99.90;;;;;;5030679;28;20281;-62
2022/05/17 00:30:33;;;;;;;;;;;13.90;99.90;;;;;;5043911;28;19920;-62
2022/05/17 00:32:58;;;;;;;;;;;13.90;99.90;;;;;;5051258;28;19913;-62
2022/05/17 00:35:24;;;;;;;;;;;14.00;99.90;;;;;;5036951;28;20044;-62
2022/05/17 00:37:49;;;;;;;;;;;13.80;99.90;;;;;;5036759;28;19917;-62
2022/05/17 00:40:15;;;;;;;;;;;13.70;99.90;;;;;;5041142;28;19917;-62
2022/05/17 00:42:41;;;;;;;;;;;13.70;99.90;;;;;;5033773;28;19924;-62
2022/05/17 00:45:09;;;;;;;;;;;13.50;99.90;;;;;;5037681;28;19916;-62
2022/05/17 00:47:37;;;;;;;;;;;13.70;99.90;;;;;;5039040;28;19952;-62
2022/05/17 00:50:05;;;;;;;;;;;13.80;99.90;;;;;;5034970;28;19909;-62
2022/05/17 00:52:35;;;;;;;;;;;13.90;99.90;;;;;;5035010;28;19967;-62
2022/05/17 00:55:03;;;;;;;;;;;13.90;99.90;;;;;;5033473;28;20007;-62
2022/05/17 00:57:34;;;;;;;;;;;13.80;99.90;;;;;;5028519;28;20365;-62
2022/05/17 01:00:02;;;;;;;;;;;13.80;99.90;;;;;;5042051;28;20344;-62
2022/05/17 01:02:28;;;;;;;;;;;14.00;99.90;;;;;;5039784;28;19912;-62
2022/05/17 01:04:54;;;;;;;;;;;14.00;99.90;;;;;;5036110;28;19919;-62
2022/05/17 01:07:22;;;;;;;;;;;14.00;99.90;;;;;;5034227;28;19913;-62
2022/05/17 01:09:48;;;;;;;;;;;13.90;99.90;;;;;;5040129;28;19913;-61
2022/05/17 01:12:13;;;;;;;;;;;14.00;99.90;;;;;;5040111;28;20410;-61
2022/05/17 01:14:58;;;;;;;;;;;13.80;99.90;;;;;;5036337;28;19942;-62
2022/05/17 01:17:27;;;;;;;;;;;13.60;99.90;;;;;;5044014;28;19927;-62
2022/05/17 01:19:53;;;;;;;;;;;13.40;99.90;;;;;;5037269;28;19913;-62
2022/05/17 01:22:18;;;;;;;;;;;13.30;99.90;;;;;;5033249;28;20343;-62
2022/05/17 01:24:44;;;;;;;;;;;13.30;99.90;;;;;;5033879;28;20028;-62
2022/05/17 01:27:28;;;;;;;;;;;13.30;99.90;;;;;;5037433;28;20416;-62
2022/05/17 01:29:54;;;;;;;;;;;13.20;99.90;;;;;;5035403;28;20399;-62
2022/05/17 01:32:20;;;;;;;;;;;13.00;99.90;;;;;;5033649;28;19948;-62
2022/05/17 01:34:46;;;;;;;;;;;12.90;99.90;;;;;;5039207;28;19913;-62
2022/05/17 01:37:12;;;;;;;;;;;16.20;99.90;;;;;;5036356;28;19913;-62
2022/05/17 01:39:38;;;;;;;;;;;12.60;99.90;;;;;;5040967;28;19909;-62
2022/05/17 01:42:04;;;;;;;;;;;12.50;99.90;;;;;;5029829;28;19924;-62
2022/05/17 01:44:29;;;;;;;;;;;12.50;99.90;;;;;;5037064;28;19939;-62
2022/05/17 01:46:55;;;;;;;;;;;12.30;99.90;;;;;;5038910;28;20423;-62
2022/05/17 01:49:20;;;;;;;;;;;12.20;99.90;;;;;;5040373;28;19916;-62
2022/05/17 01:51:46;;;;;;;;;;;12.10;99.90;;;;;;5040408;28;20011;-62
2022/05/17 01:54:11;;;;;;;;;;;12.10;99.90;;;;;;5034912;28;19917;-62
2022/05/17 01:56:37;;;;;;;;;;;12.20;99.90;;;;;;5031398;28;19923;-62
2022/05/17 01:59:02;;;;;;;;;;;12.10;99.90;;;;;;5036234;28;19963;-62
2022/05/17 02:01:28;;;;;;;;;;;12.10;99.90;;;;;;5054211;28;20011;-62
2022/05/17 02:03:53;;;;;;;;;;;12.00;99.90;;;;;;5038283;28;20413;-62
2022/05/17 02:06:19;;;;;;;;;;;12.00;99.90;;;;;;5036790;28;19935;-62
2022/05/17 02:08:44;;;;;;;;;;;12.10;99.90;;;;;;5036263;28;19948;-62
2022/05/17 02:11:10;;;;;;;;;;;11.90;99.90;;;;;;5045699;28;19925;-62
2022/05/17 02:13:38;;;;;;;;;;;11.80;99.90;;;;;;5040455;28;20365;-62
2022/05/17 02:16:04;;;;;;;;;;;11.80;99.90;;;;;;5034682;28;20384;-62
2022/05/17 02:18:29;;;;;;;;;;;11.80;99.90;;;;;;5045707;28;20017;-62
2022/05/17 02:20:55;;;;;;;;;;;11.80;99.90;;;;;;5042730;28;20078;-62
2022/05/17 02:23:21;;;;;;;;;;;11.70;99.90;;;;;;5048019;28;19909;-62
2022/05/17 02:25:46;;;;;;;;;;;11.70;99.90;;;;;;5039847;28;19917;-62
2022/05/17 02:28:13;;;;;;;;;;;11.60;99.90;;;;;;5042988;28;19949;-62
2022/05/17 02:30:39;;;;;;;;;;;11.60;99.90;;;;;;5047360;28;19927;-62
2022/05/17 02:33:06;;;;;;;;;;;11.60;99.90;;;;;;5041100;28;19956;-62
2022/05/17 02:35:31;;;;;;;;;;;11.50;99.90;;;;;;5045679;28;20234;-62
2022/05/17 02:37:57;;;;;;;;;;;11.50;99.90;;;;;;5044143;28;19916;-62
2022/05/17 02:40:22;;;;;;;;;;;11.60;99.90;;;;;;5039761;28;20380;-62
2022/05/17 02:42:48;;;;;;;;;;;11.60;99.90;;;;;;5035906;28;19917;-62
2022/05/17 02:45:13;;;;;;;;;;;11.50;99.90;;;;;;5037631;28;19917;-62
2022/05/17 02:47:39;;;;;;;;;;;11.50;99.90;;;;;;5048013;28;20360;-62
2022/05/17 02:50:05;;;;;;;;;;;11.50;99.90;;;;;;5037216;28;19999;-62
2022/05/17 02:52:31;;;;;;;;;;;11.50;99.90;;;;;;5033504;28;19919;-62
2022/05/17 02:54:56;;;;;;;;;;;11.70;99.90;;;;;;5036832;28;19913;-62
2022/05/17 02:57:21;;;;;;;;;;;11.70;99.90;;;;;;5045510;28;19917;-62
2022/05/17 02:59:47;;;;;;;;;;;11.70;99.90;;;;;;5047425;28;19953;-62
2022/05/17 03:02:12;;;;;;;;;;;11.60;99.90;;;;;;5035481;28;19913;-62
2022/05/17 03:04:38;;;;;;;;;;;11.70;99.90;;;;;;5048758;28;19944;-62
2022/05/17 03:07:04;;;;;;;;;;;11.70;99.90;;;;;;5034622;28;20238;-62
2022/05/17 03:09:29;;;;;;;;;;;12.10;99.90;;;;;;5033217;28;20405;-62
2022/05/17 03:11:55;;;;;;;;;;;12.40;99.90;;;;;;5035721;28;19924;-62
2022/05/17 03:14:22;;;;;;;;;;;12.20;99.90;;;;;;5029400;28;19917;-62
2022/05/17 03:16:47;;;;;;;;;;;11.90;99.90;;;;;;5032491;28;20007;-62
2022/05/17 03:19:13;;;;;;;;;;;11.70;99.90;;;;;;5034778;28;20364;-62
2022/05/17 03:21:39;;;;;;;;;;;11.60;99.90;;;;;;5035762;28;19939;-62
2022/05/17 03:24:04;;;;;;;;;;;11.60;99.90;;;;;;5033723;28;19917;-62
2022/05/17 03:26:30;;;;;;;;;;;11.40;99.90;;;;;;5034150;28;20285;-62
2022/05/17 03:28:58;;;;;;;;;;;11.40;99.90;;;;;;5038206;28;19913;-62
2022/05/17 03:31:24;;;;;;;;;;;11.40;99.90;;;;;;5034753;28;19975;-62
2022/05/17 03:33:49;;;;;;;;;;;11.40;99.90;;;;;;5052537;28;19921;-62
2022/05/17 03:36:15;;;;;;;;;;;11.40;99.90;;;;;;5038905;28;20027;-62
2022/05/17 03:38:40;;;;;;;;;;;11.40;99.90;;;;;;5036784;28;19913;-61
2022/05/17 03:41:06;;;;;;;;;;;11.60;99.90;;;;;;5041828;28;20345;-62
2022/05/17 03:43:32;;;;;;;;;;;11.50;99.90;;;;;;5037981;28;19912;-62
2022/05/17 03:45:58;;;;;;;;;;;11.70;99.90;;;;;;5045034;28;19915;-61
2022/05/17 03:48:25;;;;;;;;;;;11.90;99.90;;;;;;5035340;28;19967;-61
2022/05/17 03:50:51;;;;;;;;;;;11.90;99.90;;;;;;5037457;28;20367;-62
2022/05/17 03:53:16;;;;;;;;;;;11.90;99.90;;;;;;5040038;28;19913;-62
2022/05/17 03:55:42;;;;;;;;;;;11.80;99.90;;;;;;5037943;28;20389;-62
2022/05/17 03:58:07;;;;;;;;;;;11.80;99.90;;;;;;5044992;28;19924;-62
2022/05/17 04:00:33;;;;;;;;;;;11.80;99.90;;;;;;5039253;28;20094;-62
2022/05/17 04:02:59;;;;;;;;;;;11.80;99.90;;;;;;5046170;28;19941;-62
2022/05/17 04:05:24;;;;;;;;;;;11.90;99.90;;;;;;5039343;28;19923;-62
2022/05/17 04:07:50;;;;;;;;;;;11.90;99.90;;;;;;5033770;28;20369;-62
2022/05/17 04:10:16;;;;;;;;;;;12.00;99.90;;;;;;5035770;28;19920;-62
2022/05/17 04:12:42;;;;;;;;;;;12.10;99.90;;;;;;5031881;28;20014;-62
2022/05/17 04:15:09;;;;;;;;;;;12.20;99.90;;;;;;5038664;28;19927;-62
2022/05/17 04:17:34;;;;;;;;;;;12.30;99.90;;;;;;5037128;28;20020;-62
2022/05/17 04:20:00;;;;;;;;;;;12.40;99.90;;;;;;5037326;28;20067;-62
2022/05/17 04:22:26;;;;;;;;;;;12.60;99.90;;;;;;5039294;28;19916;-62
2022/05/17 04:24:55;;;;;;;;;;;12.80;99.90;;;;;;5038316;28;19919;-62
2022/05/17 04:27:22;;;;;;;;;;;12.90;99.90;;;;;;5037815;28;19913;-62
2022/05/17 04:29:47;;;;;;;;;;;13.10;99.90;;;;;;5040138;28;20004;-62
2022/05/17 04:32:13;;;;;;;;;;;13.20;99.90;;;;;;5033098;28;20071;-62
2022/05/17 04:34:38;;;;;;;;;;;13.10;99.90;;;;;;5040019;28;20356;-62
2022/05/17 04:37:04;;;;;;;;;;;13.00;99.90;;;;;;5053030;28;20297;-62
2022/05/17 04:39:30;;;;;;;;;;;13.00;99.90;;;;;;5034107;28;19943;-62
2022/05/17 04:41:56;;;;;;;;;;;13.00;99.90;;;;;;5032486;28;19924;-62
2022/05/17 04:44:22;;;;;;;;;;;13.00;99.90;;;;;;5033700;28;19921;-62
2022/05/17 04:46:47;;;;;;;;;;;13.00;99.90;;;;;;5034944;28;19945;-62
2022/05/17 04:49:12;;;;;;;;;;;13.00;99.90;;;;;;5032854;28;19920;-62
2022/05/17 04:51:38;;;;;;;;;;;13.10;99.90;;;;;;5038378;28;20007;-62
2022/05/17 04:54:03;;;;;;;;;;;13.20;99.90;;;;;;5035936;28;20000;-62
2022/05/17 04:56:29;;;;;;;;;;;13.20;99.90;;;;;;5036735;28;20384;-62
2022/05/17 04:58:55;;;;;;;;;;;13.50;99.90;;;;;;5039038;28;19924;-62
2022/05/17 05:01:21;;;;;;;;;;;13.60;99.90;;;;;;5036590;28;20296;-61
2022/05/17 05:03:47;;;;;;;;;;;13.80;99.90;;;;;;5033825;28;19980;-62
2022/05/17 05:06:12;;;;;;;;;;;14.10;99.90;;;;;;5039632;28;19955;-62
2022/05/17 05:08:38;;;;;;;;;;;14.20;99.90;;;;;;5040903;28;19913;-62
2022/05/17 05:11:03;;;;;;;;;;;14.30;99.90;;;;;;5037346;28;20309;-62
2022/05/17 05:13:29;;;;;;;;;;;14.30;99.90;;;;;;5034484;28;19959;-62
2022/05/17 05:15:55;;;;;;;;;;;14.30;99.90;;;;;;5035061;28;19928;-62
2022/05/17 05:18:21;;;;;;;;;;;14.30;99.90;;;;;;5032530;28;19939;-62
2022/05/17 05:20:46;;;;;;;;;;;14.30;99.90;;;;;;5036362;28;19913;-62
2022/05/17 05:23:12;;;;;;;;;;;14.50;99.90;;;;;;5031284;28;19913;-62
2022/05/17 05:25:38;;;;;;;;;;;14.50;99.90;;;;;;5036016;28;19923;-62
2022/05/17 05:28:05;;;;;;;;;;;14.80;99.90;;;;;;5034917;28;19925;-62
2022/05/17 05:30:31;;;;;;;;;;;15.00;99.90;;;;;;5039222;28;19986;-61
2022/05/17 05:32:56;;;;;;;;;;;14.90;99.90;;;;;;5038994;28;19913;-62
2022/05/17 05:35:22;;;;;;;;;;;15.10;99.90;;;;;;5044046;28;19924;-62
2022/05/17 05:37:48;;;;;;;;;;;15.30;99.90;;;;;;5035576;28;20422;-61
2022/05/17 05:40:14;;;;;;;;;;;15.40;99.90;;;;;;5035883;28;20013;-62
2022/05/17 05:42:40;;;;;;;;;;;15.50;99.90;;;;;;5028764;28;19964;-62
2022/05/17 05:45:07;;;;;;;;;;;15.60;99.90;;;;;;5041728;28;19928;-62
2022/05/17 05:47:32;;;;;;;;;;;15.70;99.90;;;;;;5037885;28;19909;-62
2022/05/17 05:49:57;;;;;;;;;;;15.70;99.90;;;;;;5055968;28;20391;-62
2022/05/17 05:52:23;;;;;;;;;;;15.90;99.90;;;;;;5033313;28;20136;-62
2022/05/17 05:54:48;;;;;;;;;;;16.10;99.90;;;;;;5037604;28;20000;-62
2022/05/17 05:57:14;;;;;;;;;;;16.30;99.90;;;;;;5034797;28;19921;-62
2022/05/17 05:59:39;;;;;;;;;;;16.00;99.90;;;;;;5046242;28;20300;-62
2022/05/17 06:02:06;;;;;;;;;;;16.20;99.90;;;;;;5036637;28;19952;-62
2022/05/17 06:04:31;;;;;;;;;;;16.50;99.90;;;;;;5051248;28;20661;-62
2022/05/17 06:06:57;;;;;;;;;;;16.70;99.90;;;;;;5038053;28;20243;-62
2022/05/17 06:09:24;;;;;;;;;;;16.90;99.90;;;;;;5039868;28;19919;-62
2022/05/17 06:11:49;;;;;;;;;;;16.80;99.90;;;;;;5031638;28;19923;-62
2022/05/17 06:14:15;;;;;;;;;;;16.70;99.90;;;;;;5033924;28;19921;-61
2022/05/17 06:16:40;;;;;;;;;;;16.60;99.90;;;;;;5034960;28;20016;-62
2022/05/17 06:19:06;;;;;;;;;;;16.70;99.90;;;;;;5030850;28;19912;-62
2022/05/17 06:21:32;;;;;;;;;;;16.60;99.90;;;;;;5038821;28;20000;-61
2022/05/17 06:23:58;;;;;;;;;;;16.70;99.90;;;;;;5035553;28;19974;-62
2022/05/17 06:26:23;;;;;;;;;;;16.80;99.90;;;;;;5036698;28;19917;-61
2022/05/17 06:28:50;;;;;;;;;;;16.80;99.90;;;;;;5034771;28;20015;-61
2022/05/17 06:31:15;;;;;;;;;;;16.80;99.90;;;;;;5035231;28;20414;-61
2022/05/17 06:33:40;;;;;;;;;;;16.90;99.90;;;;;;5033690;28;19921;-61
2022/05/17 06:36:06;;;;;;;;;;;17.00;99.90;;;;;;5040480;28;20078;-62
2022/05/17 06:38:32;;;;;;;;;;;17.10;99.90;;;;;;5031507;28;19913;-62
2022/05/17 06:40:58;;;;;;;;;;;17.20;99.90;;;;;;5040208;28;19913;-62
2022/05/17 06:43:24;;;;;;;;;;;17.50;99.90;;;;;;5035144;28;20295;-62
2022/05/17 06:45:50;;;;;;;;;;;17.60;99.90;;;;;;5040120;28;19920;-62
2022/05/17 06:48:15;;;;;;;;;;;17.70;99.90;;;;;;5038398;28;19913;-61
2022/05/17 06:50:41;;;;;;;;;;;17.90;99.90;;;;;;5034423;28;20729;-62
2022/05/17 06:53:08;;;;;;;;;;;18.00;99.90;;;;;;5041748;28;19912;-62
2022/05/17 06:55:34;;;;;;;;;;;18.20;99.90;;;;;;5034688;28;19983;-62
2022/05/17 06:57:59;;;;;;;;;;;18.20;99.90;;;;;;5035667;28;20373;-62
2022/05/17 07:00:26;;;;;;;;;;;18.30;99.90;;;;;;5058675;28;20536;-62
2022/05/17 07:02:52;;;;;;;;;;;18.50;99.90;;;;;;5031938;28;19913;-62
2022/05/17 07:05:17;;;;;;;;;;;18.70;99.90;;;;;;5037070;28;19917;-62
2022/05/17 07:07:43;;;;;;;;;;;18.70;99.90;;;;;;5038384;28;19966;-62
2022/05/17 07:13:09;;;;;;;;;;;18.60;99.90;;;;;;5033575;28;19975;-62
2022/05/17 07:15:40;;;;;;;;;;;18.50;99.90;;;;;;5035298;28;19929;-62
2022/05/17 07:18:05;;;;;;;;;;;18.60;99.90;;;;;;5035702;28;20361;-62
2022/05/17 07:20:31;;;;;;;;;;;19.20;99.90;;;;;;5034247;28;19960;-62
2022/05/17 07:22:56;;;;;;;;;;;18.80;99.90;;;;;;5039628;28;19960;-62
2022/05/17 07:25:22;;;;;;;;;;;19.10;99.90;;;;;;5039775;28;19917;-62
2022/05/17 07:27:48;;;;;;;;;;;19.40;99.90;;;;;;5035741;28;20008;-62
2022/05/17 07:30:13;;;;;;;;;;;19.40;99.90;;;;;;5040893;28;19956;-62
2022/05/17 07:32:39;;;;;;;;;;;19.50;99.90;;;;;;5036062;28;19917;-62
2022/05/17 07:35:06;;;;;;;;;;;19.60;99.90;;;;;;5035502;28;19927;-62
2022/05/17 07:37:32;;;;;;;;;;;19.50;99.90;;;;;;5053174;28;19977;-62
2022/05/17 07:39:58;;;;;;;;;;;19.80;99.90;;;;;;5034133;28;19920;-62
2022/05/17 07:42:23;;;;;;;;;;;20.00;99.90;;;;;;5029841;28;19920;-62
2022/05/17 07:44:49;;;;;;;;;;;20.20;99.90;;;;;;5033648;28;19954;-62
2022/05/17 07:47:14;;;;;;;;;;;20.40;99.90;;;;;;5041038;28;20388;-62
2022/05/17 07:49:42;;;;;;;;;;;20.70;99.90;;;;;;5042782;28;19924;-62
2022/05/17 07:52:07;;;;;;;;;;;20.80;99.90;;;;;;5039390;28;20025;-62
2022/05/17 07:54:33;;;;;;;;;;;20.80;99.90;;;;;;5037315;28;20003;-63
2022/05/17 07:56:59;;;;;;;;;;;21.20;99.90;;;;;;5033093;28;19952;-63
2022/05/17 07:59:24;;;;;;;;;;;21.40;99.90;;;;;;5037175;28;19917;-63
2022/05/17 08:01:49;;;;;;;;;;;21.20;99.90;;;;;;5025607;28;19917;-63
2022/05/17 08:04:15;;;;;;;;;;;21.30;99.90;;;;;;5028342;28;20762;-62
2022/05/17 08:06:41;;;;;;;;;;;21.30;99.90;;;;;;5033828;28;19913;-63
2022/05/17 08:09:07;;;;;;;;;;;21.20;99.90;;;;;;5032978;28;19980;-63
2022/05/17 08:11:32;;;;;;;;;;;20.90;99.90;;;;;;5033935;28;19925;-63
2022/05/17 08:13:58;;;;;;;;;;;20.70;99.90;;;;;;5028477;28;19968;-63
2022/05/17 08:16:23;;;;;;;;;;;20.80;99.90;;;;;;5032046;28;19924;-63
2022/05/17 08:18:49;;;;;;;;;;;20.80;99.90;;;;;;5034342;28;19935;-63
2022/05/17 08:21:14;;;;;;;;;;;20.70;99.90;;;;;;5030275;28;19917;-63
2022/05/17 08:23:40;;;;;;;;;;;20.40;99.90;;;;;;5033790;28;19963;-63
2022/05/17 08:28:50;;;;;;;;;;;20.50;99.90;;;;;;5034970;28;20566;-63
2022/05/17 08:31:15;;;;;;;;;;;20.40;99.90;;;;;;5035207;28;20011;-63
2022/05/17 08:33:41;;;;;;;;;;;20.30;99.90;;;;;;5038166;28;19923;-63
2022/05/17 08:36:10;;;;;;;;;;;20.20;99.90;;;;;;5032041;28;20356;-63
2022/05/17 08:38:39;;;;;;;;;;;20.30;99.90;;;;;;5038386;28;20204;-63
2022/05/17 08:41:13;;;;;;;;;;;20.30;99.90;;;;;;5039060;28;19917;-63
2022/05/17 08:43:46;;;;;;;;;;;20.50;99.90;;;;;;5028576;28;20040;-63
2022/05/17 08:46:28;;;;;;;;;;;20.70;99.90;;;;;;5033534;28;19920;-63
2022/05/17 08:49:12;;;;;;;;;;;20.90;99.90;;;;;;5035422;28;20381;-63
2022/05/17 08:51:40;;;;;;;;;;;21.10;99.90;;;;;;5032409;28;20008;-63
2022/05/17 08:54:07;;;;;;;;;;;21.20;99.90;;;;;;5034340;28;19917;-63
2022/05/17 08:56:36;;;;;;;;;;;21.50;99.90;;;;;;5032015;28;19928;-63
2022/05/17 08:59:04;;;;;;;;;;;21.60;99.90;;;;;;5037042;28;19924;-63
2022/05/17 09:01:34;;;;;;;;;;;21.40;99.90;;;;;;5041680;28;19913;-63
2022/05/17 09:04:13;;;;;;;;;;;21.30;99.90;;;;;;5037956;28;20008;-62
2022/05/17 09:06:50;;;;;;;;;;;21.20;99.90;;;;;;5048447;28;19919;-63
2022/05/17 09:09:23;;;;;;;;;;;21.30;99.90;;;;;;5030436;28;19924;-63
2022/05/17 09:11:56;;;;;;;;;;;21.40;99.90;;;;;;5027949;28;19923;-63
2022/05/17 09:14:32;;;;;;;;;;;21.40;99.90;;;;;;5033312;28;19921;-63
2022/05/17 09:16:59;;;;;;;;;;;21.20;99.90;;;;;;5031682;28;19928;-63
2022/05/17 09:19:25;;;;;;;;;;;21.30;99.90;;;;;;5031889;28;20133;-63
2022/05/17 09:21:53;;;;;;;;;;;21.60;99.90;;;;;;5034514;28;20316;-63
2022/05/17 09:24:20;;;;;;;;;;;21.70;99.90;;;;;;5034878;28;19985;-63
2022/05/17 09:27:00;;;;;;;;;;;21.60;99.90;;;;;;5031890;28;19963;-63
2022/05/17 09:29:37;;;;;;;;;;;21.50;99.90;;;;;;5037555;28;20653;-63
2022/05/17 09:32:06;;;;;;;;;;;21.40;99.90;;;;;;5034450;28;19947;-63
2022/05/17 09:34:34;;;;;;;;;;;21.30;99.90;;;;;;5034984;28;20300;-63
2022/05/17 09:37:08;;;;;;;;;;;21.80;99.90;;;;;;5036808;28;19917;-63
2022/05/17 09:39:33;;;;;;;;;;;22.00;99.90;;;;;;5035404;28;19913;-63
2022/05/17 09:42:06;;;;;;;;;;;22.40;99.90;;;;;;5031568;28;19923;-63
2022/05/17 09:44:33;;;;;;;;;;;23.20;99.90;;;;;;5028555;28;20296;-63
2022/05/17 09:47:05;;;;;;;;;;;23.80;99.90;;;;;;5033106;28;19913;-63
2022/05/17 09:52:33;;;;;;;;;;;23.20;99.90;;;;;;5036069;28;20328;-63
2022/05/17 09:55:32;;;;;;;;;;;23.40;99.90;;;;;;5026844;28;20501;-63
2022/05/17 09:58:01;;;;;;;;;;;23.20;99.90;;;;;;5024839;28;19925;-63
2022/05/17 10:00:28;;;;;;;;;;;23.00;99.90;;;;;;5040110;28;19935;-63
2022/05/17 10:02:55;;;;;;;;;;;23.20;99.90;;;;;;5032391;28;19919;-63
2022/05/17 10:05:36;;;;;;;;;;;23.60;99.90;;;;;;5027072;28;19962;-63
2022/05/17 10:08:04;;;;;;;;;;;23.80;99.90;;;;;;5027325;28;19925;-63
2022/05/17 10:10:37;;;;;;;;;;;23.70;99.90;;;;;;5037179;28;19913;-63
2022/05/17 10:13:21;;;;;;;;;;;23.90;99.90;;;;;;5030608;28;19921;-63
2022/05/17 10:15:49;;;;;;;;;;;24.10;99.90;;;;;;5038057;28;20681;-62
2022/05/17 10:18:20;;;;;;;;;;;24.00;99.90;;;;;;5033826;28;19921;-63
2022/05/17 10:20:47;;;;;;;;;;;23.90;99.90;;;;;;5036568;28;19917;-63
2022/05/17 10:23:17;;;;;;;;;;;24.40;99.90;;;;;;5034206;28;19925;-63
2022/05/17 10:25:47;;;;;;;;;;;24.90;99.90;;;;;;5037982;28;19929;-63
2022/05/17 10:28:32;;;;;;;;;;;25.90;99.80;;;;;;5033898;28;19913;-63
2022/05/17 10:30:57;;;;;;;;;;;26.20;95.50;;;;;;5034241;28;19920;-62
2022/05/17 10:33:30;;;;;;;;;;;26.30;95.90;;;;;;5039200;28;20124;-62
2022/05/17 10:36:01;;;;;;;;;;;26.90;94.30;;;;;;5045259;28;19967;-63
2022/05/17 10:38:30;;;;;;;;;;;26.70;94.80;;;;;;5033913;28;19967;-63
2022/05/17 10:40:57;;;;;;;;;;;25.70;95.20;;;;;;5035611;28;19913;-63
2022/05/17 10:43:30;;;;;;;;;;;25.10;96.60;;;;;;5027205;28;19932;-63
2022/05/17 10:45:57;;;;;;;;;;;24.90;96.80;;;;;;5033034;28;20519;-63
2022/05/17 10:48:41;;;;;;;;;;;25.20;98.00;;;;;;5037082;28;19913;-63
2022/05/17 10:51:24;;;;;;;;;;;25.40;96.10;;;;;;5032829;28;19916;-63
2022/05/17 10:53:50;;;;;;;;;;;25.50;96.60;;;;;;5029864;28;19928;-63
2022/05/17 10:56:15;;;;;;;;;;;25.70;95.60;;;;;;5026853;28;20581;-63
2022/05/17 10:58:44;;;;;;;;;;;25.20;96.30;;;;;;5030266;28;19982;-63
2022/05/17 11:01:16;;;;;;;;;;;24.90;97.10;;;;;;5030110;28;19974;-63
2022/05/17 11:03:48;;;;;;;;;;;24.10;96.60;;;;;;5029543;28;20292;-63
2022/05/17 11:06:13;;;;;;;;;;;24.20;98.80;;;;;;5029363;28;19913;-63
2022/05/17 11:08:45;;;;;;;;;;;24.30;99.20;;;;;;5032552;28;19924;-63
2022/05/17 11:11:37;;;;;;;;;;;24.60;97.20;;;;;;5027819;28;19917;-63
2022/05/17 11:14:07;;;;;;;;;;;24.70;96.50;;;;;;5021313;28;19929;-63
2022/05/17 11:16:38;;;;;;;;;;;24.60;97.60;;;;;;5027013;28;19944;-63
2022/05/17 11:19:07;;;;;;;;;;;24.90;96.00;;;;;;5027315;28;19916;-63
2022/05/17 11:21:39;;;;;;;;;;;24.40;97.00;;;;;;5029306;28;19909;-63
2022/05/17 11:24:11;;;;;;;;;;;24.50;97.80;;;;;;5032202;28;20020;-63
2022/05/17 11:26:55;;;;;;;;;;;24.30;99.20;;;;;;5037356;28;20008;-63
2022/05/17 11:29:33;;;;;;;;;;;24.10;99.50;;;;;;5039915;28;19916;-63
2022/05/17 11:32:00;;;;;;;;;;;24.30;99.10;;;;;;5050096;28;19932;-63
2022/05/17 11:34:28;;;;;;;;;;;23.90;99.40;;;;;;5040233;28;19920;-63
2022/05/17 11:36:58;;;;;;;;;;;24.30;99.00;;;;;;5038761;28;19928;-63
2022/05/17 11:39:39;;;;;;;;;;;24.50;98.00;;;;;;5033481;28;19971;-63
2022/05/17 11:42:09;;;;;;;;;;;23.90;98.10;;;;;;5035536;28;19955;-63
2022/05/17 11:44:47;;;;;;;;;;;24.40;97.40;;;;;;5034547;28;20288;-63
2022/05/17 11:47:28;;;;;;;;;;;24.80;95.80;;;;;;5038508;28;19951;-63
2022/05/17 11:50:13;;;;;;;;;;;25.70;95.50;;;;;;5038953;28;19951;-63
2022/05/17 11:52:39;;;;;;;;;;;25.70;93.50;;;;;;5037843;28;19999;-63
2022/05/17 11:55:05;;;;;;;;;;;25.30;95.40;;;;;;5038638;28;20094;-63
2022/05/17 11:57:30;;;;;;;;;;;25.30;95.70;;;;;;5030916;28;20024;-63
2022/05/17 11:59:59;;;;;;;;;;;25.00;94.90;;;;;;5049931;28;19983;-63
2022/05/17 12:02:43;;;;;;;;;;;23.30;99.60;;;;;;5034503;28;19959;-63
2022/05/17 12:05:31;;;;;;;;;;;23.20;99.70;;;;;;5035032;28;20027;-63
2022/05/17 12:08:16;;;;;;;;;;;22.50;99.90;;;;;;5029823;28;19917;-63
2022/05/17 12:10:41;;;;;;;;;;;22.80;99.90;;;;;;5039581;28;20396;-63
2022/05/17 12:13:07;;;;;;;;;;;23.00;99.90;;;;;;5039271;28;19917;-63
2022/05/17 12:15:33;;;;;;;;;;;22.70;99.90;;;;;;5035773;28;19922;-63
2022/05/17 12:18:19;;;;;;;;;;;23.30;99.90;;;;;;5053443;28;19940;-63
2022/05/17 12:20:48;;;;;;;;;;;23.70;99.90;;;;;;5039998;28;19920;-63
2022/05/17 12:23:17;;;;;;;;;;;23.50;99.80;;;;;;5039448;28;20269;-63
2022/05/17 12:25:54;;;;;;;;;;;22.50;99.90;;;;;;5043250;28;19999;-63
2022/05/17 12:28:23;;;;;;;;;;;22.10;99.90;;;;;;5035940;28;20404;-63
2022/05/17 12:30:53;;;;;;;;;;;22.50;99.90;;;;;;5043998;28;19924;-63
2022/05/17 12:33:18;;;;;;;;;;;23.00;99.90;;;;;;5032387;28;20296;-63
2022/05/17 12:35:44;;;;;;;;;;;23.90;99.90;;;;;;5038786;28;20252;-62
2022/05/17 12:43:59;;;;;;;;;;;24.10;99.60;;;;;;5017306;28;19928;-63
2022/05/17 12:46:30;;;;;;;;;;;24.10;98.90;;;;;;5029870;28;19913;-63
2022/05/17 12:48:56;;;;;;;;;;;23.40;99.80;;;;;;5029001;28;19996;-63
2022/05/17 12:51:22;;;;;;;;;;;22.60;99.90;;;;;;5040419;28;20291;-63
2022/05/17 12:53:49;;;;;;;;;;;23.40;99.90;;;;;;5038675;28;20214;-63
2022/05/17 12:56:20;;;;;;;;;;;23.50;99.90;;;;;;5044344;28;19959;-63
2022/05/17 12:58:51;;;;;;;;;;;23.90;99.90;;;;;;5039072;28;20038;-63
2022/05/17 13:01:24;;;;;;;;;;;24.00;99.90;;;;;;5039048;28;19939;-63
2022/05/17 13:03:52;;;;;;;;;;;23.70;99.90;;;;;;5045519;28;19921;-63
2022/05/17 13:06:17;;;;;;;;;;;23.80;99.90;;;;;;5038738;28;20368;-63
2022/05/17 13:08:43;;;;;;;;;;;24.00;99.90;;;;;;5032432;28;19917;-63
2022/05/17 13:11:13;;;;;;;;;;;22.70;99.90;;;;;;5042118;28;19917;-63
2022/05/17 13:13:41;;;;;;;;;;;22.90;99.90;;;;;;5029778;28;19921;-63
2022/05/17 13:16:21;;;;;;;;;;;22.70;99.90;;;;;;5031666;28;20016;-63
2022/05/17 13:18:57;;;;;;;;;;;22.80;99.90;;;;;;5027295;28;19975;-63
2022/05/17 13:21:36;;;;;;;;;;;22.20;99.90;;;;;;5031918;28;19909;-63
2022/05/17 13:24:04;;;;;;;;;;;22.00;99.90;;;;;;5035522;28;20008;-63
2022/05/17 13:26:31;;;;;;;;;;;22.00;99.90;;;;;;5035688;28;19920;-63
2022/05/17 13:29:25;;;;;;;;;;;22.20;99.90;;;;;;5032444;28;20007;-63
2022/05/17 13:31:58;;;;;;;;;;;22.70;99.90;;;;;;5035894;28;19929;-63
2022/05/17 13:34:29;;;;;;;;;;;22.20;99.90;;;;;;5031265;28;19917;-63
2022/05/17 13:37:13;;;;;;;;;;;22.20;99.90;;;;;;5027476;28;20018;-63
2022/05/17 13:39:41;;;;;;;;;;;22.00;99.90;;;;;;5026106;28;19916;-63
2022/05/17 13:42:16;;;;;;;;;;;23.40;99.90;;;;;;5033198;28;20095;-63
2022/05/17 13:44:50;;;;;;;;;;;23.90;99.90;;;;;;5031728;28;20458;-63
2022/05/17 13:47:20;;;;;;;;;;;23.60;99.90;;;;;;5032664;28;20388;-63
2022/05/17 13:49:46;;;;;;;;;;;23.10;99.90;;;;;;5036942;28;19920;-63
2022/05/17 13:54:51;;;;;;;;;;;23.70;99.90;;;;;;5185559;23;19941;-64
2022/05/17 13:57:39;;;;;;;;;;;23.80;99.90;;;;;;4991238;28;19921;-64
2022/05/17 14:00:07;;;;;;;;;;;23.50;99.90;;;;;;4991370;28;19910;-64
2022/05/17 14:02:32;;;;;;;;;;;22.40;99.90;;;;;;4974584;28;19913;-64
2022/05/17 14:05:13;;;;;;;;;;;22.80;99.90;;;;;;4989987;28;19993;-64
2022/05/17 14:07:38;;;;;;;;;;;22.80;99.90;;;;;;4990203;28;20394;-64
2022/05/17 14:13:22;;;;;;;;;;;22.90;99.90;;;;;;4988527;28;20395;-64
2022/05/17 14:15:48;;;;;;;;;;;22.20;99.90;;;;;;4964261;28;19992;-64
2022/05/17 14:18:22;;;;;;;;;;;22.00;99.90;;;;;;4988421;28;19914;-64
2022/05/17 14:20:48;;;;;;;;;;;22.40;99.90;;;;;;4980934;28;20292;-64
2022/05/17 14:23:13;;;;;;;;;;;22.40;99.90;;;;;;4986572;28;20126;-64
2022/05/17 14:25:39;;;;;;;;;;;22.40;99.90;;;;;;4966723;28;19928;-64
2022/05/17 14:28:04;;;;;;;;;;;22.20;99.90;;;;;;4987100;28;20373;-64
2022/05/17 14:30:30;;;;;;;;;;;21.80;99.90;;;;;;4986662;28;19922;-64
2022/05/17 14:32:55;;;;;;;;;;;21.80;99.90;;;;;;4986413;28;20739;-64
2022/05/17 14:35:22;;;;;;;;;;;22.00;99.90;;;;;;4986105;28;19925;-64
2022/05/17 14:37:47;;;;;;;;;;;22.30;99.90;;;;;;4985087;28;19925;-64
2022/05/17 14:40:13;;;;;;;;;;;22.00;99.90;;;;;;4986680;28;19918;-64
2022/05/17 14:42:38;;;;;;;;;;;21.70;99.90;;;;;;4985978;28;19968;-63